createdAt,value
2023-05-04T00:01:47.830Z,99612.31
2023-05-04T00:04:42.650Z,99607.23
2023-05-04T00:07:34.830Z,99605.27
2023-05-04T00:10:27.971Z,99607.63
2023-05-04T00:13:19.987Z,99608.27
2023-05-04T00:16:12.369Z,99604.19
2023-05-04T00:19:04.626Z,99600.15
2023-05-04T00:21:56.624Z,99595.02
2023-05-04T00:24:31.638Z,99598.80
2023-05-04T00:27:23.625Z,99594.59
2023-05-04T00:30:16.565Z,99598.34
2023-05-04T00:33:08.613Z,99601.09
2023-05-04T00:36:00.954Z,99600.70
2023-05-04T00:38:50.014Z,99598.89
2023-05-04T00:41:42.172Z,99590.67
2023-05-04T00:44:35.691Z,99583.36
2023-05-04T00:47:29.816Z,99578.65
2023-05-04T00:50:22.384Z,99582.28
2023-05-04T00:53:06.919Z,99583.14
2023-05-04T00:55:59.015Z,99577.35
2023-05-04T00:58:54.165Z,99576.80
2023-05-04T01:01:46.213Z,99582.17
2023-05-04T01:04:38.358Z,99580.61
2023-05-04T01:07:39.480Z,99575.90
2023-05-04T01:10:35.843Z,99576.05
2023-05-04T01:13:29.162Z,99578.98
2023-05-04T01:16:21.921Z,99577.69
2023-05-04T01:19:13.979Z,99575.38
2023-05-04T01:22:06.011Z,99574.65
2023-05-04T01:24:58.172Z,99572.34
2023-05-04T01:27:58.412Z,99571.62
2023-05-04T01:30:55.030Z,99570.58
2023-05-04T01:33:47.494Z,99574.20
2023-05-04T01:36:40.323Z,99572.27
2023-05-04T01:39:32.465Z,99568.07
2023-05-04T01:42:24.482Z,99568.75
2023-05-04T01:45:17.218Z,99564.38
2023-05-04T01:48:09.723Z,99561.55
2023-05-04T01:51:01.803Z,99559.27
2023-05-04T01:53:53.766Z,99561.82
2023-05-04T01:56:45.884Z,99555.88
2023-05-04T01:59:37.880Z,99551.66
2023-05-04T02:02:29.908Z,99552.86
2023-05-04T02:05:21.926Z,99557.71
2023-05-04T02:08:13.971Z,99559.75
2023-05-04T02:11:06.044Z,99557.79
2023-05-04T02:13:58.058Z,99560.31
2023-05-04T02:16:50.063Z,99558.52
2023-05-04T02:19:42.070Z,99559.66
2023-05-04T02:22:34.212Z,99559.59
2023-05-04T02:25:26.382Z,99559.90
2023-05-04T02:28:18.691Z,99557.63
2023-05-04T02:31:10.750Z,99557.23
2023-05-04T02:34:03.133Z,99550.95
2023-05-04T02:36:55.126Z,99557.67
2023-05-04T02:39:47.059Z,99556.77
2023-05-04T02:42:39.035Z,99559.52
2023-05-04T02:45:31.006Z,99559.48
2023-05-04T02:48:23.063Z,99564.46
2023-05-04T02:51:15.125Z,99568.39
2023-05-04T02:54:08.434Z,99563.17
2023-05-04T02:57:00.732Z,99562.47
2023-05-04T02:59:52.663Z,99569.55
2023-05-04T03:02:44.801Z,99567.59
2023-05-04T03:05:27.115Z,99563.50
2023-05-04T03:08:19.192Z,99567.23
2023-05-04T03:11:11.128Z,99569.42
2023-05-04T03:14:03.350Z,99571.10
2023-05-04T03:16:51.654Z,99566.91
2023-05-04T03:19:43.991Z,99562.90
2023-05-04T03:22:36.024Z,99559.42
2023-05-04T03:25:15.333Z,99558.89
2023-05-04T03:28:08.111Z,99563.91
2023-05-04T03:31:00.191Z,99562.70
2023-05-04T03:33:52.143Z,99561.50
2023-05-04T03:36:44.547Z,99562.20
2023-05-04T03:39:36.628Z,99559.09
2023-05-04T03:42:28.689Z,99563.42
2023-05-04T03:45:21.462Z,99564.98
2023-05-04T03:47:56.654Z,99574.34
2023-05-04T03:50:48.822Z,99571.55
2023-05-04T03:56:18.098Z,99574.73
2023-05-04T03:59:10.071Z,99568.53
2023-05-04T04:02:02.587Z,99571.02
2023-05-04T04:04:54.705Z,99564.48
2023-05-04T04:07:46.713Z,99568.73
2023-05-04T04:10:38.798Z,99569.52
2023-05-04T04:13:30.762Z,99571.33
2023-05-04T04:16:22.941Z,99569.84
2023-05-04T04:19:15.088Z,99570.80
2023-05-04T04:22:07.231Z,99573.33
2023-05-04T04:24:59.192Z,99578.47
2023-05-04T04:27:51.252Z,99576.84
2023-05-04T04:30:43.592Z,99575.39
2023-05-04T04:33:36.409Z,99575.19
2023-05-04T04:36:28.343Z,99580.36
2023-05-04T04:39:05.855Z,99577.54
2023-05-04T04:41:57.872Z,99578.54
2023-05-04T04:44:50.539Z,99582.18
2023-05-04T04:47:42.542Z,99579.90
2023-05-04T04:50:34.561Z,99580.41
2023-05-04T04:53:26.607Z,99579.70
2023-05-04T04:56:19.355Z,99576.02
2023-05-04T04:59:11.624Z,99570.60
2023-05-04T05:01:47.014Z,99571.95
2023-05-04T05:04:40.441Z,99572.11
2023-05-04T05:07:22.998Z,99575.23
2023-05-04T05:10:15.169Z,99572.46
2023-05-04T05:13:07.334Z,99572.61
2023-05-04T05:15:59.515Z,99568.56
2023-05-04T05:18:51.710Z,99575.16
2023-05-04T05:21:43.745Z,99574.99
2023-05-04T05:24:35.774Z,99576.73
2023-05-04T05:27:29.225Z,99574.20
2023-05-04T05:30:21.439Z,99568.80
2023-05-04T05:33:13.869Z,99572.30
2023-05-04T05:36:06.670Z,99573.85
2023-05-04T05:38:58.701Z,99574.64
2023-05-04T05:41:50.750Z,99574.02
2023-05-04T05:44:42.711Z,99570.95
2023-05-04T05:47:34.696Z,99568.48
2023-05-04T05:50:26.736Z,99564.60
2023-05-04T05:53:18.751Z,99563.72
2023-05-04T05:56:11.081Z,99556.98
2023-05-04T05:59:03.130Z,99559.42
2023-05-04T06:01:54.966Z,99561.50
2023-05-04T06:04:47.211Z,99560.49
2023-05-04T06:07:39.214Z,99552.84
2023-05-04T06:10:31.155Z,99555.62
2023-05-04T06:13:23.121Z,99553.01
2023-05-04T06:16:00.258Z,99550.89
2023-05-04T06:18:52.812Z,99550.60
2023-05-04T06:21:44.885Z,99549.29
2023-05-04T06:24:36.922Z,99548.45
2023-05-04T06:27:31.661Z,99544.52
2023-05-04T06:30:24.456Z,99541.34
2023-05-04T06:33:16.468Z,99539.88
2023-05-04T06:36:09.160Z,99542.21
2023-05-04T06:39:01.323Z,99536.81
2023-05-04T06:41:56.208Z,99529.84
2023-05-04T06:44:48.238Z,99525.31
2023-05-04T06:47:40.216Z,99526.17
2023-05-04T06:50:33.391Z,99527.99
2023-05-04T06:53:25.759Z,99525.86
2023-05-04T06:56:18.103Z,99526.58
2023-05-04T06:59:10.582Z,99529.83
2023-05-04T07:02:02.602Z,99528.69
2023-05-04T07:04:55.096Z,99527.16
2023-05-04T07:07:48.038Z,99522.23
2023-05-04T07:10:40.309Z,99521.90
2023-05-04T07:13:32.444Z,99516.71
2023-05-04T07:16:24.462Z,99517.05
2023-05-04T07:19:17.602Z,99511.09
2023-05-04T07:22:09.734Z,99511.21
2023-05-04T07:25:02.021Z,99508.33
2023-05-04T07:27:54.112Z,99517.41
2023-05-04T07:30:43.300Z,99518.38
2023-05-04T07:33:35.394Z,99518.25
2023-05-04T07:36:27.859Z,99515.55
2023-05-04T07:39:19.851Z,99516.12
2023-05-04T07:42:12.663Z,99516.34
2023-05-04T07:45:04.969Z,99517.48
2023-05-04T07:47:57.005Z,99514.50
2023-05-04T07:50:49.273Z,99512.30
2023-05-04T07:53:41.438Z,99514.48
2023-05-04T07:56:33.737Z,99515.92
2023-05-04T07:59:08.409Z,99514.17
2023-05-04T08:01:44.211Z,99516.40
2023-05-04T08:04:36.212Z,99512.16
2023-05-04T08:07:28.320Z,99511.45
2023-05-04T08:10:03.168Z,99515.19
2023-05-04T08:12:55.312Z,99515.73
2023-05-04T08:15:47.626Z,99511.64
2023-05-04T08:18:39.639Z,99512.20
2023-05-04T08:21:31.728Z,99515.66
2023-05-04T08:24:32.102Z,99517.65
2023-05-04T08:27:24.148Z,99513.09
2023-05-04T08:30:17.093Z,99514.79
2023-05-04T08:33:09.160Z,99513.50
2023-05-04T08:36:01.440Z,99514.46
2023-05-04T08:38:54.232Z,99512.46
2023-05-04T08:41:46.322Z,99515.07
2023-05-04T08:44:27.535Z,99516.96
2023-05-04T08:47:19.600Z,99513.39
2023-05-04T08:50:12.957Z,99517.98
2023-05-04T08:53:06.752Z,99515.60
2023-05-04T08:56:03.999Z,99514.70
2023-05-04T08:59:01.683Z,99510.65
2023-05-04T09:01:57.317Z,99511.27
2023-05-04T09:04:49.653Z,99516.79
2023-05-04T09:07:41.714Z,99512.54
2023-05-04T09:10:34.299Z,99508.05
2023-05-04T09:13:26.291Z,99506.30
2023-05-04T09:16:07.715Z,99505.41
2023-05-04T09:18:59.638Z,99505.22
2023-05-04T09:21:54.338Z,99505.95
2023-05-04T09:24:46.821Z,99502.02
2023-05-04T09:27:41.308Z,99502.41
2023-05-04T09:30:33.654Z,99504.38
2023-05-04T09:33:29.621Z,99498.17
2023-05-04T09:36:24.993Z,99494.98
2023-05-04T09:39:17.477Z,99500.45
2023-05-04T09:42:18.799Z,99498.06
2023-05-04T09:45:10.966Z,99496.62
2023-05-04T09:48:03.122Z,99491.02
2023-05-04T09:50:55.943Z,99487.36
2023-05-04T09:53:49.219Z,99484.86
2023-05-04T09:56:47.630Z,99489.24
2023-05-04T09:59:40.664Z,99485.63
2023-05-04T10:02:34.754Z,99478.81
2023-05-04T10:05:28.512Z,99474.67
2023-05-04T10:08:21.691Z,99471.85
2023-05-04T10:11:18.577Z,99472.88
2023-05-04T10:14:10.845Z,99474.23
2023-05-04T10:17:13.912Z,99472.71
2023-05-04T10:20:27.639Z,99462.79
2023-05-04T10:23:45.690Z,99460.51
2023-05-04T10:26:51.361Z,99451.35
2023-05-04T10:29:44.055Z,99447.98
2023-05-04T10:32:39.881Z,99451.77
2023-05-04T10:35:32.279Z,99447.48
2023-05-04T10:38:34.321Z,99435.05
2023-05-04T10:41:26.310Z,99436.83
2023-05-04T10:44:18.304Z,99431.70
2023-05-04T10:47:11.458Z,99432.27
2023-05-04T10:49:43.398Z,99432.77
2023-05-04T10:52:46.231Z,99429.46
2023-05-04T10:55:43.235Z,99430.20
2023-05-04T10:58:35.218Z,99430.93
2023-05-04T11:01:27.358Z,99425.28
2023-05-04T11:04:23.308Z,99421.84
2023-05-04T11:07:15.314Z,99416.02
2023-05-04T11:10:09.429Z,99414.66
2023-05-04T11:13:05.572Z,99411.79
2023-05-04T11:15:58.318Z,99408.40
2023-05-04T11:18:50.410Z,99401.23
2023-05-04T11:21:31.819Z,99401.60
2023-05-04T11:24:23.835Z,99401.21
2023-05-04T11:27:25.283Z,99399.38
2023-05-04T11:30:18.025Z,99394.17
2023-05-04T11:33:15.595Z,99388.08
2023-05-04T11:36:08.837Z,99390.85
2023-05-04T11:39:01.093Z,99387.04
2023-05-04T11:41:36.488Z,99388.61
2023-05-04T11:44:30.168Z,99391.59
2023-05-04T11:47:22.793Z,99381.60
2023-05-04T11:50:16.696Z,99376.27
2023-05-04T11:53:09.938Z,99374.72
2023-05-04T11:56:06.546Z,99370.54
2023-05-04T11:59:08.364Z,99365.34
2023-05-04T12:02:00.963Z,99365.02
2023-05-04T12:04:52.956Z,99368.06
2023-05-04T12:07:44.997Z,99364.67
2023-05-04T12:10:36.987Z,99359.38
2023-05-04T12:13:18.228Z,99355.63
2023-05-04T12:16:18.199Z,99353.43
2023-05-04T12:19:12.797Z,99351.73
2023-05-04T12:22:06.051Z,99349.36
2023-05-04T12:24:59.898Z,99349.02
2023-05-04T12:27:52.163Z,99348.43
2023-05-04T12:30:44.146Z,99343.08
2023-05-04T12:33:37.063Z,99345.52
2023-05-04T12:36:10.304Z,99341.02
2023-05-04T12:39:02.390Z,99336.34
2023-05-04T12:41:54.361Z,99336.88
2023-05-04T12:44:46.378Z,99338.48
2023-05-04T12:47:24.737Z,99339.11
2023-05-04T12:50:16.854Z,99336.40
2023-05-04T12:53:09.565Z,99330.95
2023-05-04T12:56:03.646Z,99326.39
2023-05-04T12:58:56.429Z,99322.84
2023-05-04T13:01:48.480Z,99318.92
2023-05-04T13:04:40.507Z,99317.30
2023-05-04T13:07:32.597Z,99320.36
2023-05-04T13:10:25.444Z,99315.94
2023-05-04T13:13:17.985Z,99310.77
2023-05-04T13:16:10.443Z,99310.80
2023-05-04T13:19:03.229Z,99306.35
2023-05-04T13:21:55.215Z,99298.00
2023-05-04T13:24:47.208Z,99294.52
2023-05-04T13:27:39.197Z,99289.41
2023-05-04T13:30:31.504Z,99289.59
2023-05-04T13:33:29.545Z,99283.11
2023-05-04T13:36:22.867Z,99276.14
2023-05-04T13:39:14.890Z,99273.09
2023-05-04T13:41:50.064Z,99268.77
2023-05-04T13:44:24.716Z,99269.72
2023-05-04T13:47:17.629Z,99269.52
2023-05-04T13:50:04.041Z,99264.69
2023-05-04T13:52:56.055Z,99266.90
2023-05-04T13:55:48.251Z,99262.73
2023-05-04T13:58:40.207Z,99263.39
2023-05-04T14:01:32.242Z,99258.61
2023-05-04T14:04:24.654Z,99258.05
2023-05-04T14:07:16.656Z,99255.79
2023-05-04T14:10:10.105Z,99259.05
2023-05-04T14:13:02.224Z,99256.31
2023-05-04T14:15:54.335Z,99255.12
2023-05-04T14:18:46.302Z,99255.30
2023-05-04T14:21:38.771Z,99253.75
2023-05-04T14:24:31.627Z,99259.05
2023-05-04T14:27:12.673Z,99252.73
2023-05-04T14:30:05.043Z,99248.05
2023-05-04T14:32:58.173Z,99246.41
2023-05-04T14:35:48.032Z,99244.34
2023-05-04T14:38:38.814Z,99243.39
2023-05-04T14:41:33.540Z,99237.20
2023-05-04T14:44:27.226Z,99241.30
2023-05-04T14:47:20.122Z,99243.48
2023-05-04T14:50:13.298Z,99236.34
2023-05-04T14:52:47.911Z,99236.03
2023-05-04T14:55:41.928Z,99237.00
2023-05-04T14:58:33.932Z,99232.86
2023-05-04T15:01:26.046Z,99233.79
2023-05-04T15:04:17.972Z,99232.02
2023-05-04T15:07:10.042Z,99231.50
2023-05-04T15:10:01.975Z,99238.20
2023-05-04T15:12:54.325Z,99235.43
2023-05-04T15:15:46.362Z,99232.41
2023-05-04T15:18:38.360Z,99231.11
2023-05-04T15:21:20.562Z,99222.04
2023-05-04T15:24:12.571Z,99222.36
2023-05-04T15:27:04.707Z,99222.90
2023-05-04T15:29:54.768Z,99222.69
2023-05-04T15:32:46.797Z,99219.37
2023-05-04T15:35:39.211Z,99220.38
2023-05-04T15:38:31.193Z,99214.95
2023-05-04T15:41:23.203Z,99212.24
2023-05-04T15:44:15.286Z,99213.20
2023-05-04T15:47:09.635Z,99207.13
2023-05-04T15:50:01.713Z,99205.33
2023-05-04T15:52:38.609Z,99204.75
2023-05-04T15:55:30.812Z,99196.31
2023-05-04T15:58:22.809Z,99193.30
2023-05-04T16:01:14.963Z,99192.45
2023-05-04T16:04:07.265Z,99190.85
2023-05-04T16:06:39.478Z,99189.33
2023-05-04T16:09:31.689Z,99193.61
2023-05-04T16:12:23.655Z,99190.23
2023-05-04T16:15:15.844Z,99191.29
2023-05-04T16:17:53.102Z,99190.92
2023-05-04T16:20:45.166Z,99192.00
2023-05-04T16:23:37.359Z,99195.59
2023-05-04T16:26:09.260Z,99192.06
2023-05-04T16:29:01.262Z,99196.31
2023-05-04T16:31:53.205Z,99192.48
2023-05-04T16:34:45.500Z,99200.98
2023-05-04T16:37:39.902Z,99202.05
2023-05-04T16:40:32.735Z,99198.52
2023-05-04T16:43:24.890Z,99195.73
2023-05-04T16:46:17.214Z,99194.17
2023-05-04T16:49:10.915Z,99193.44
2023-05-04T16:52:04.910Z,99192.05
2023-05-04T16:54:57.090Z,99189.77
2023-05-04T16:57:49.272Z,99194.30
2023-05-04T17:00:43.001Z,99190.21
2023-05-04T17:03:35.621Z,99195.11
2023-05-04T17:06:27.819Z,99196.64
2023-05-04T17:09:19.812Z,99199.09
2023-05-04T17:12:11.828Z,99203.25
2023-05-04T17:15:04.053Z,99204.78
2023-05-04T17:17:56.559Z,99203.21
2023-05-04T17:20:48.579Z,99203.18
2023-05-04T17:23:29.600Z,99209.63
2023-05-04T17:26:21.859Z,99210.66
2023-05-04T17:29:04.291Z,99214.23
2023-05-04T17:31:56.450Z,99211.65
2023-05-04T17:34:48.499Z,99213.47
2023-05-04T17:37:40.556Z,99215.27
2023-05-04T17:40:32.571Z,99215.65
2023-05-04T17:43:24.566Z,99216.73
2023-05-04T17:46:16.741Z,99217.98
2023-05-04T17:49:08.801Z,99226.09
2023-05-04T17:52:01.395Z,99226.16
2023-05-04T17:54:54.721Z,99231.61
2023-05-04T17:57:29.931Z,99226.96
2023-05-04T18:00:23.113Z,99227.61
2023-05-04T18:03:15.263Z,99229.33
2023-05-04T18:05:57.372Z,99230.09
2023-05-04T18:08:49.416Z,99234.73
2023-05-04T18:11:41.386Z,99234.86
2023-05-04T18:14:33.362Z,99240.09
2023-05-04T18:17:26.433Z,99242.73
2023-05-04T18:20:18.694Z,99246.40
2023-05-04T18:22:53.527Z,99249.55
2023-05-04T18:25:45.544Z,99252.87
2023-05-04T18:28:37.490Z,99252.99
2023-05-04T18:31:09.454Z,99255.46
2023-05-04T18:34:03.733Z,99261.01
2023-05-04T18:36:56.612Z,99266.84
2023-05-04T18:39:48.958Z,99268.27
2023-05-04T18:42:31.987Z,99275.53
2023-05-04T18:45:24.179Z,99273.58
2023-05-04T18:48:16.148Z,99272.15
2023-05-04T18:51:08.251Z,99273.86
2023-05-04T18:54:00.266Z,99276.10
2023-05-04T18:56:43.248Z,99277.10
2023-05-04T18:59:36.007Z,99279.66
2023-05-04T19:02:29.894Z,99281.56
2023-05-04T19:05:22.035Z,99274.48
2023-05-04T19:08:14.021Z,99280.74
2023-05-04T19:11:05.982Z,99279.84
2023-05-04T19:13:58.863Z,99279.54
2023-05-04T19:16:50.829Z,99278.67
2023-05-04T19:19:42.959Z,99278.26
2023-05-04T19:22:34.997Z,99277.23
2023-05-04T19:28:25.469Z,99282.36
2023-05-04T19:31:17.472Z,99277.16
2023-05-04T19:34:09.661Z,99271.48
2023-05-04T19:37:01.753Z,99271.73
2023-05-04T19:39:54.663Z,99271.21
2023-05-04T19:42:47.027Z,99267.89
2023-05-04T19:45:21.933Z,99270.21
2023-05-04T19:48:16.296Z,99265.52
2023-05-04T19:51:08.534Z,99264.76
2023-05-04T19:54:00.621Z,99261.83
2023-05-04T19:56:52.894Z,99259.58
2023-05-04T19:59:46.898Z,99258.44
2023-05-04T20:02:39.537Z,99250.44
2023-05-04T20:05:31.698Z,99246.27
2023-05-04T20:08:23.615Z,99251.46
2023-05-04T20:11:15.723Z,99251.38
2023-05-04T20:14:07.945Z,99248.13
2023-05-04T20:17:00.158Z,99248.89
2023-05-04T20:19:34.746Z,99247.22
2023-05-04T20:22:09.076Z,99244.16
2023-05-04T20:25:01.106Z,99248.61
2023-05-04T20:27:53.863Z,99249.61
2023-05-04T20:30:46.748Z,99248.48
2023-05-04T20:33:38.894Z,99253.15
2023-05-04T20:36:30.968Z,99247.48
2023-05-04T20:39:11.359Z,99247.38
2023-05-04T20:42:03.986Z,99248.70
2023-05-04T20:44:56.002Z,99250.02
2023-05-04T20:47:48.383Z,99250.33
2023-05-04T20:50:40.604Z,99251.99
2023-05-04T20:53:44.430Z,99252.77
2023-05-04T20:56:36.523Z,99255.99
2023-05-04T20:59:28.575Z,99249.05
2023-05-04T21:02:20.581Z,99249.12
2023-05-04T21:05:12.795Z,99247.62
2023-05-04T21:08:04.832Z,99247.71
2023-05-04T21:10:56.764Z,99243.77
2023-05-04T21:13:48.813Z,99240.20
2023-05-04T21:16:40.796Z,99234.30
2023-05-04T21:19:32.796Z,99227.05
2023-05-04T21:22:24.771Z,99225.89
2023-05-04T21:25:17.079Z,99229.30
2023-05-04T21:28:09.042Z,99229.08
2023-05-04T21:30:46.014Z,99229.64
2023-05-04T21:33:38.019Z,99233.59
2023-05-04T21:36:29.999Z,99232.27
2023-05-04T21:39:22.980Z,99228.48
2023-05-04T21:42:14.978Z,99225.93
2023-05-04T21:45:08.310Z,99223.36
2023-05-04T21:47:42.943Z,99223.09
2023-05-04T21:50:34.934Z,99218.60
2023-05-04T21:53:27.051Z,99217.79
2023-05-04T21:56:19.132Z,99221.21
2023-05-04T21:59:11.386Z,99228.82
2023-05-04T22:02:03.718Z,99228.34
2023-05-04T22:04:55.837Z,99227.02
2023-05-04T22:07:47.781Z,99227.97
2023-05-04T22:10:40.170Z,99223.24
2023-05-04T22:13:32.224Z,99221.73
2023-05-04T22:16:24.595Z,99224.96
2023-05-04T22:19:16.566Z,99223.75
2023-05-04T22:22:08.574Z,99228.86
2023-05-04T22:25:00.587Z,99224.39
2023-05-04T22:27:52.610Z,99224.98
2023-05-04T22:30:44.598Z,99228.05
2023-05-04T22:33:36.631Z,99230.73
2023-05-04T22:36:28.683Z,99227.77
2023-05-04T22:39:15.790Z,99226.93
2023-05-04T22:42:07.994Z,99226.08
2023-05-04T22:45:00.182Z,99223.14
2023-05-04T22:47:32.029Z,99216.52
2023-05-04T22:50:08.000Z,99215.48
2023-05-04T22:53:00.240Z,99215.33
2023-05-04T22:55:52.205Z,99218.89
2023-05-04T22:58:45.885Z,99213.51
2023-05-04T23:01:42.527Z,99212.98
2023-05-04T23:04:34.694Z,99214.60
2023-05-04T23:07:26.696Z,99209.54
2023-05-04T23:10:18.750Z,99214.48
2023-05-04T23:13:10.824Z,99211.35
2023-05-04T23:15:44.886Z,99211.39
2023-05-04T23:18:36.937Z,99208.98
2023-05-04T23:21:28.867Z,99215.48
2023-05-04T23:24:20.835Z,99214.65
2023-05-04T23:27:12.872Z,99209.99
2023-05-04T23:30:06.132Z,99204.39
2023-05-04T23:32:58.468Z,99202.48
2023-05-04T23:35:50.472Z,99202.18
2023-05-04T23:38:42.524Z,99203.63
2023-05-04T23:41:34.697Z,99200.85
2023-05-04T23:44:26.779Z,99200.85
2023-05-04T23:47:18.743Z,99202.08
2023-05-04T23:50:12.406Z,99200.55
2023-05-04T23:53:04.487Z,99197.96
2023-05-04T23:56:04.297Z,99196.09
2023-05-04T23:58:56.550Z,99196.81
